KMSV/MSV METAR and TAF weather

Enter ICAO airport designator
Station Type Date Time Source
KMSV METAR 2022/05/25 00:56 UTC NOAA

KMSV 250056Z AUTO 18003KT 10SM FEW060 14/08 A3031 RMK AO2 SLP267 T01390083


Station Type Date Time Source
KMSV Decoded METAR 2022/05/25 00:56 UTC NOAA

Monticello, Sullivan County International Airport, NY, United States (KMSV) 41-42N 074-48W
May 24, 2022 - 08:56 PM EDT / 2022.05.25 0056 UTC
Wind: from the S (180 degrees) at 3 MPH (3 KT):0
Visibility: 10 mile(s):0
Sky conditions: mostly clear
Temperature: 57.0 F (13.9 C)
Dew Point: 46.9 F (8.3 C)
Relative Humidity: 68%
Pressure (altimeter): 30.31 in. Hg (1026 hPa)
ob: KMSV 250056Z AUTO 18003KT 10SM FEW060 14/08 A3031 RMK AO2 SLP267 T01390083
cycle: 1

Station Type Date Time Source
KMSV TAF UTC NOAA

Error!

Example: see airport list